WZZ2413 UKBB-EYKA
Flight info
| Callsign | WZZ2413 |
|---|---|
| Flight time | 1h 30m |
| Altitude | 36000 |
| Route | SLV M70 TOLPA/N0452F360 M70 SOMOX DCT SUMAM/N0452F370 M857 VAXUR DCT GERVI DCT XESNA DCT BULEP DCT UNPEG DCT NORNO DCT SUWGI M985 BOKSU DCT ADIDU |
| Aircraft | A320/M-SDE3FGHIRWY/LB1 |
Departure
| Time | 2026-04-15 07:29 |
|---|---|
| Airport | Boryspil International Airport (UKBB) |
Arrival
| Time | 2026-04-15 09:00 |
|---|---|
| Airport | Kaunas International Airport (EYKA) |
| Time | Latitude | Longitude | Altitude | Speed | Heading |
|---|---|---|---|---|---|
| 2026-04-15 07:01 | 50.35268 | 30.90154 | 412 ft | 0 kts | 92° |
| 2026-04-15 07:21 | 50.35269 | 30.90126 | 416 ft | 4 kts | 96° |
| 2026-04-15 07:21 | 50.35273 | 30.90084 | 413 ft | 4 kts | 104° |
| 2026-04-15 07:21 | 50.35282 | 30.90045 | 413 ft | 4 kts | 127° |
| 2026-04-15 07:21 | 50.35299 | 30.90025 | 415 ft | 2 kts | 182° |
| 2026-04-15 07:22 | 50.35305 | 30.90026 | 415 ft | 0 kts | 183° |
| 2026-04-15 07:22 | 50.35305 | 30.90025 | 415 ft | 0 kts | 183° |
| 2026-04-15 07:24 | 50.35294 | 30.90025 | 411 ft | 5 kts | 183° |
| 2026-04-15 07:24 | 50.35248 | 30.90021 | 415 ft | 8 kts | 183° |
| 2026-04-15 07:24 | 50.35200 | 30.90069 | 412 ft | 10 kts | 119° |
| 2026-04-15 07:24 | 50.35190 | 30.90190 | 415 ft | 12 kts | 100° |
| 2026-04-15 07:25 | 50.35123 | 30.90254 | 415 ft | 13 kts | 181° |
| 2026-04-15 07:25 | 50.35025 | 30.90248 | 414 ft | 15 kts | 183° |
| 2026-04-15 07:25 | 50.34914 | 30.90239 | 412 ft | 17 kts | 182° |
| 2026-04-15 07:25 | 50.34789 | 30.90230 | 409 ft | 19 kts | 182° |
| 2026-04-15 07:26 | 50.34648 | 30.90220 | 415 ft | 21 kts | 183° |
| 2026-04-15 07:26 | 50.34493 | 30.90209 | 414 ft | 23 kts | 182° |
| 2026-04-15 07:26 | 50.34323 | 30.90196 | 409 ft | 25 kts | 182° |
| 2026-04-15 07:26 | 50.34139 | 30.90181 | 412 ft | 27 kts | 183° |
| 2026-04-15 07:27 | 50.33947 | 30.90168 | 416 ft | 29 kts | 182° |
| 2026-04-15 07:27 | 50.33758 | 30.90151 | 412 ft | 26 kts | 180° |
| 2026-04-15 07:27 | 50.33584 | 30.90140 | 408 ft | 23 kts | 184° |
| 2026-04-15 07:27 | 50.33419 | 30.90130 | 409 ft | 25 kts | 183° |
| 2026-04-15 07:28 | 50.33330 | 30.90174 | 416 ft | 12 kts | 117° |
| 2026-04-15 07:28 | 50.33320 | 30.90300 | 416 ft | 11 kts | 95° |
| 2026-04-15 07:28 | 50.33311 | 30.90404 | 415 ft | 10 kts | 111° |
| 2026-04-15 07:28 | 50.33341 | 30.90448 | 420 ft | 8 kts | 1° |
| 2026-04-15 07:29 | 50.33476 | 30.90457 | 421 ft | 49 kts | 2° |
| 2026-04-15 07:29 | 50.34067 | 30.90498 | 423 ft | 115 kts | 3° |
| 2026-04-15 07:29 | 50.35018 | 30.90569 | 518 ft | 154 kts | 360° |
| 2026-04-15 07:29 | 50.36077 | 30.90699 | 1215 ft | 151 kts | 1° |
| 2026-04-15 07:30 | 50.37123 | 30.90863 | 1920 ft | 155 kts | 1° |
| 2026-04-15 07:30 | 50.38261 | 30.91038 | 2271 ft | 175 kts | 1° |
| 2026-04-15 07:30 | 50.39547 | 30.91217 | 2578 ft | 197 kts | 0° |
| 2026-04-15 07:30 | 50.41005 | 30.91320 | 2962 ft | 222 kts | 359° |
| 2026-04-15 07:31 | 50.42616 | 30.91386 | 3523 ft | 238 kts | 359° |
| 2026-04-15 07:31 | 50.44292 | 30.91447 | 4353 ft | 243 kts | 359° |
| 2026-04-15 07:31 | 50.45976 | 30.91508 | 5250 ft | 247 kts | 359° |
| 2026-04-15 07:31 | 50.47706 | 30.91573 | 6179 ft | 250 kts | 359° |
| 2026-04-15 07:32 | 50.49449 | 30.91640 | 7088 ft | 252 kts | 359° |
| 2026-04-15 07:32 | 50.51193 | 30.91447 | 7912 ft | 253 kts | 342° |
| 2026-04-15 07:32 | 50.52699 | 30.90044 | 8739 ft | 257 kts | 315° |
| 2026-04-15 07:32 | 50.53635 | 30.87645 | 9624 ft | 263 kts | 291° |
| 2026-04-15 07:33 | 50.53855 | 30.84755 | 10396 ft | 273 kts | 272° |
| 2026-04-15 07:33 | 50.53778 | 30.81679 | 10753 ft | 292 kts | 271° |
| 2026-04-15 07:33 | 50.53680 | 30.78363 | 10925 ft | 315 kts | 271° |
| 2026-04-15 07:33 | 50.53568 | 30.74861 | 11158 ft | 333 kts | 271° |
| 2026-04-15 07:34 | 50.53446 | 30.71190 | 11723 ft | 339 kts | 270° |
| 2026-04-15 07:34 | 50.53167 | 30.67480 | 12362 ft | 346 kts | 261° |
| 2026-04-15 07:34 | 50.52413 | 30.63842 | 13009 ft | 355 kts | 250° |
| 2026-04-15 07:34 | 50.51271 | 30.60367 | 13676 ft | 360 kts | 246° |
| 2026-04-15 07:35 | 50.50084 | 30.56887 | 14318 ft | 363 kts | 246° |
| 2026-04-15 07:35 | 50.48890 | 30.53381 | 14897 ft | 365 kts | 247° |
| 2026-04-15 07:35 | 50.47689 | 30.49858 | 15461 ft | 368 kts | 247° |
| 2026-04-15 07:35 | 50.46471 | 30.46296 | 16019 ft | 371 kts | 247° |
| 2026-04-15 07:36 | 50.45248 | 30.42727 | 16583 ft | 373 kts | 248° |
| 2026-04-15 07:36 | 50.44027 | 30.39174 | 17135 ft | 376 kts | 248° |
| 2026-04-15 07:36 | 50.42780 | 30.35546 | 17710 ft | 379 kts | 248° |
| 2026-04-15 07:36 | 50.41525 | 30.31895 | 18264 ft | 381 kts | 248° |
| 2026-04-15 07:37 | 50.40266 | 30.28223 | 18803 ft | 383 kts | 249° |
| 2026-04-15 07:37 | 50.39067 | 30.24488 | 19314 ft | 384 kts | 250° |
| 2026-04-15 07:37 | 50.37923 | 30.20691 | 19820 ft | 386 kts | 251° |
| 2026-04-15 07:37 | 50.36802 | 30.16852 | 20332 ft | 389 kts | 251° |
| 2026-04-15 07:38 | 50.35679 | 30.12982 | 20817 ft | 392 kts | 251° |
| 2026-04-15 07:38 | 50.34539 | 30.09089 | 21274 ft | 395 kts | 251° |
| 2026-04-15 07:38 | 50.33396 | 30.05237 | 21720 ft | 398 kts | 251° |
| 2026-04-15 07:38 | 50.32216 | 30.01307 | 22177 ft | 400 kts | 250° |
| 2026-04-15 07:39 | 50.31018 | 29.97346 | 22598 ft | 403 kts | 250° |
| 2026-04-15 07:39 | 50.29812 | 29.93380 | 23032 ft | 406 kts | 250° |
| 2026-04-15 07:39 | 50.28594 | 29.89383 | 23431 ft | 409 kts | 250° |
| 2026-04-15 07:39 | 50.27367 | 29.85364 | 23864 ft | 411 kts | 250° |
| 2026-04-15 07:40 | 50.26133 | 29.81326 | 24217 ft | 413 kts | 250° |
| 2026-04-15 07:40 | 50.24910 | 29.77323 | 24566 ft | 415 kts | 249° |
| 2026-04-15 07:40 | 50.23665 | 29.73248 | 24917 ft | 417 kts | 249° |
| 2026-04-15 07:40 | 50.22411 | 29.69157 | 25269 ft | 418 kts | 249° |
| 2026-04-15 07:41 | 50.21236 | 29.65004 | 25611 ft | 417 kts | 255° |
| 2026-04-15 07:41 | 50.20532 | 29.60654 | 25948 ft | 413 kts | 265° |
| 2026-04-15 07:41 | 50.20373 | 29.56192 | 26289 ft | 410 kts | 276° |
| 2026-04-15 07:41 | 50.20749 | 29.51796 | 26632 ft | 408 kts | 285° |
| 2026-04-15 07:42 | 50.21633 | 29.47602 | 26975 ft | 408 kts | 295° |
| 2026-04-15 07:42 | 50.22867 | 29.43604 | 27302 ft | 410 kts | 297° |
| 2026-04-15 07:42 | 50.24120 | 29.39594 | 27644 ft | 412 kts | 297° |
| 2026-04-15 07:42 | 50.25354 | 29.35625 | 28071 ft | 411 kts | 297° |
| 2026-04-15 07:43 | 50.26597 | 29.31607 | 28571 ft | 410 kts | 297° |
| 2026-04-15 07:43 | 50.27833 | 29.27598 | 29012 ft | 409 kts | 296° |
| 2026-04-15 07:43 | 50.29066 | 29.23596 | 29443 ft | 409 kts | 296° |
| 2026-04-15 07:43 | 50.30302 | 29.19583 | 29899 ft | 409 kts | 296° |
| 2026-04-15 07:44 | 50.31535 | 29.15573 | 30363 ft | 408 kts | 296° |
| 2026-04-15 07:44 | 50.32764 | 29.11574 | 30768 ft | 407 kts | 296° |
| 2026-04-15 07:44 | 50.33989 | 29.07585 | 31172 ft | 407 kts | 296° |
| 2026-04-15 07:44 | 50.35209 | 29.03598 | 31585 ft | 406 kts | 296° |
| 2026-04-15 07:45 | 50.36410 | 28.99665 | 31981 ft | 405 kts | 296° |
| 2026-04-15 07:45 | 50.37625 | 28.95684 | 32399 ft | 405 kts | 296° |
| 2026-04-15 07:45 | 50.38837 | 28.91707 | 32808 ft | 404 kts | 296° |
| 2026-04-15 07:45 | 50.40046 | 28.87732 | 33193 ft | 404 kts | 296° |
| 2026-04-15 07:46 | 50.41257 | 28.83752 | 33570 ft | 405 kts | 296° |
| 2026-04-15 07:46 | 50.42468 | 28.79770 | 33962 ft | 404 kts | 296° |
| 2026-04-15 07:46 | 50.43675 | 28.75789 | 34339 ft | 404 kts | 296° |
| 2026-04-15 07:46 | 50.44877 | 28.71814 | 34635 ft | 404 kts | 296° |
| 2026-04-15 07:47 | 50.45940 | 28.67781 | 34898 ft | 406 kts | 288° |
| 2026-04-15 07:47 | 50.46760 | 28.63548 | 35161 ft | 407 kts | 288° |
| 2026-04-15 07:47 | 50.47574 | 28.59291 | 35402 ft | 408 kts | 287° |
| 2026-04-15 07:47 | 50.48389 | 28.55023 | 35660 ft | 409 kts | 287° |
| 2026-04-15 07:48 | 50.49206 | 28.50744 | 35905 ft | 409 kts | 287° |
| 2026-04-15 07:48 | 50.50020 | 28.46454 | 36144 ft | 410 kts | 287° |
| 2026-04-15 07:48 | 50.50840 | 28.42147 | 36245 ft | 413 kts | 287° |
| 2026-04-15 07:48 | 50.51661 | 28.37846 | 36268 ft | 420 kts | 287° |
| 2026-04-15 07:49 | 50.53354 | 28.28982 | 36260 ft | 426 kts | 287° |
| 2026-04-15 07:49 | 50.55042 | 28.20050 | 36267 ft | 426 kts | 287° |
| 2026-04-15 07:50 | 50.56712 | 28.11106 | 36264 ft | 427 kts | 287° |
| 2026-04-15 07:50 | 50.58381 | 28.02145 | 36256 ft | 427 kts | 287° |
| 2026-04-15 07:51 | 50.60045 | 27.93227 | 36257 ft | 428 kts | 287° |
| 2026-04-15 07:51 | 50.61713 | 27.84231 | 36270 ft | 428 kts | 287° |
| 2026-04-15 07:52 | 50.63376 | 27.75214 | 36280 ft | 429 kts | 287° |
| 2026-04-15 07:52 | 50.65034 | 27.66182 | 36285 ft | 429 kts | 287° |
| 2026-04-15 07:53 | 50.66670 | 27.57197 | 36282 ft | 429 kts | 286° |
| 2026-04-15 07:53 | 50.68307 | 27.48142 | 36282 ft | 430 kts | 286° |
| 2026-04-15 07:54 | 50.69943 | 27.39073 | 36274 ft | 430 kts | 286° |
| 2026-04-15 07:54 | 50.71574 | 27.30005 | 36280 ft | 429 kts | 286° |
| 2026-04-15 07:55 | 50.73190 | 27.20933 | 36281 ft | 429 kts | 286° |
| 2026-04-15 07:56 | 50.75583 | 27.07387 | 36286 ft | 429 kts | 285° |
| 2026-04-15 07:56 | 50.77177 | 26.98307 | 36284 ft | 429 kts | 285° |
| 2026-04-15 07:57 | 50.78757 | 26.89233 | 36281 ft | 429 kts | 285° |
| 2026-04-15 07:57 | 50.80343 | 26.80151 | 36288 ft | 429 kts | 285° |
| 2026-04-15 07:58 | 50.81912 | 26.71126 | 36287 ft | 428 kts | 285° |
| 2026-04-15 07:58 | 50.83474 | 26.62032 | 36290 ft | 428 kts | 285° |
| 2026-04-15 07:59 | 50.85035 | 26.52938 | 36288 ft | 428 kts | 285° |
| 2026-04-15 07:59 | 50.86581 | 26.43901 | 36289 ft | 428 kts | 285° |
| 2026-04-15 08:00 | 50.88122 | 26.34804 | 36286 ft | 428 kts | 285° |
| 2026-04-15 08:00 | 50.89659 | 26.25695 | 36292 ft | 428 kts | 284° |
| 2026-04-15 08:01 | 50.91174 | 26.16586 | 36296 ft | 427 kts | 284° |
| 2026-04-15 08:01 | 50.92687 | 26.07487 | 36292 ft | 427 kts | 284° |
| 2026-04-15 08:02 | 50.94195 | 25.98455 | 36290 ft | 426 kts | 284° |
| 2026-04-15 08:02 | 50.95702 | 25.89370 | 36287 ft | 426 kts | 284° |
| 2026-04-15 08:03 | 50.97195 | 25.80269 | 36287 ft | 426 kts | 284° |
| 2026-04-15 08:03 | 50.98670 | 25.71161 | 36284 ft | 426 kts | 284° |
| 2026-04-15 08:04 | 51.00144 | 25.62117 | 36282 ft | 426 kts | 284° |
| 2026-04-15 08:04 | 51.01618 | 25.53009 | 36278 ft | 426 kts | 284° |
| 2026-04-15 08:05 | 51.03082 | 25.43894 | 36279 ft | 426 kts | 284° |
| 2026-04-15 08:05 | 51.04542 | 25.34776 | 36279 ft | 426 kts | 284° |
| 2026-04-15 08:06 | 51.05991 | 25.25657 | 36281 ft | 425 kts | 284° |
| 2026-04-15 08:06 | 51.07424 | 25.16612 | 36277 ft | 425 kts | 284° |
| 2026-04-15 08:07 | 51.08858 | 25.07496 | 36275 ft | 425 kts | 284° |
| 2026-04-15 08:07 | 51.10282 | 24.98373 | 36271 ft | 425 kts | 283° |
| 2026-04-15 08:08 | 51.11700 | 24.89247 | 36272 ft | 425 kts | 283° |
| 2026-04-15 08:08 | 51.13098 | 24.80177 | 36272 ft | 425 kts | 283° |
| 2026-04-15 08:09 | 51.14503 | 24.71045 | 36269 ft | 424 kts | 283° |
| 2026-04-15 08:09 | 51.15899 | 24.61909 | 36266 ft | 424 kts | 283° |
| 2026-04-15 08:10 | 51.17289 | 24.52779 | 36262 ft | 424 kts | 283° |
| 2026-04-15 08:10 | 51.18668 | 24.43633 | 36259 ft | 424 kts | 283° |
| 2026-04-15 08:11 | 51.20035 | 24.34541 | 36260 ft | 425 kts | 283° |
| 2026-04-15 08:11 | 51.21405 | 24.25378 | 36260 ft | 425 kts | 283° |
| 2026-04-15 08:12 | 51.22771 | 24.16217 | 36258 ft | 425 kts | 283° |
| 2026-04-15 08:12 | 51.24127 | 24.07035 | 36260 ft | 425 kts | 283° |
| 2026-04-15 08:13 | 51.25462 | 23.97908 | 36260 ft | 425 kts | 283° |
| 2026-04-15 08:13 | 51.26800 | 23.88713 | 36259 ft | 425 kts | 283° |
| 2026-04-15 08:14 | 51.28135 | 23.79515 | 36253 ft | 425 kts | 283° |
| 2026-04-15 08:14 | 51.29464 | 23.70314 | 36249 ft | 425 kts | 283° |
| 2026-04-15 08:15 | 51.30774 | 23.61183 | 36258 ft | 425 kts | 282° |
| 2026-04-15 08:15 | 51.32089 | 23.51956 | 36265 ft | 425 kts | 282° |
| 2026-04-15 08:16 | 51.33395 | 23.42732 | 36260 ft | 425 kts | 282° |
| 2026-04-15 08:16 | 51.34678 | 23.33557 | 36258 ft | 425 kts | 282° |
| 2026-04-15 08:17 | 51.35962 | 23.24344 | 36256 ft | 425 kts | 282° |
| 2026-04-15 08:17 | 51.37249 | 23.15086 | 36254 ft | 425 kts | 282° |
| 2026-04-15 08:18 | 51.38521 | 23.05903 | 36250 ft | 425 kts | 282° |
| 2026-04-15 08:18 | 51.39792 | 22.96622 | 36246 ft | 426 kts | 282° |
| 2026-04-15 08:19 | 51.41048 | 22.87365 | 36250 ft | 426 kts | 282° |
| 2026-04-15 08:19 | 51.42309 | 22.78089 | 36247 ft | 427 kts | 282° |
| 2026-04-15 08:20 | 51.43559 | 22.68824 | 36253 ft | 427 kts | 282° |
| 2026-04-15 08:20 | 51.44795 | 22.59549 | 36248 ft | 427 kts | 282° |
| 2026-04-15 08:21 | 51.46020 | 22.50257 | 36248 ft | 428 kts | 282° |
| 2026-04-15 08:21 | 51.47910 | 22.41256 | 36242 ft | 428 kts | 297° |
| 2026-04-15 08:22 | 51.50874 | 22.32964 | 36242 ft | 429 kts | 298° |
| 2026-04-15 08:22 | 51.53818 | 22.24660 | 36241 ft | 429 kts | 298° |
| 2026-04-15 08:23 | 51.56772 | 22.16305 | 36238 ft | 430 kts | 301° |
| 2026-04-15 08:23 | 51.58626 | 22.12483 | 36233 ft | 432 kts | 314° |
| 2026-04-15 08:23 | 51.60940 | 22.09504 | 36230 ft | 434 kts | 327° |
| 2026-04-15 08:23 | 51.63675 | 22.07429 | 36236 ft | 437 kts | 340° |
| 2026-04-15 08:24 | 51.66646 | 22.06443 | 36237 ft | 441 kts | 354° |
| 2026-04-15 08:24 | 51.69715 | 22.06613 | 36266 ft | 446 kts | 7° |
| 2026-04-15 08:24 | 51.72778 | 22.07498 | 36527 ft | 447 kts | 8° |
| 2026-04-15 08:24 | 51.75841 | 22.08391 | 36812 ft | 447 kts | 8° |
| 2026-04-15 08:25 | 51.78906 | 22.09281 | 37090 ft | 448 kts | 8° |
| 2026-04-15 08:25 | 51.81978 | 22.10174 | 37222 ft | 449 kts | 8° |
| 2026-04-15 08:25 | 51.85050 | 22.11071 | 37226 ft | 449 kts | 8° |
| 2026-04-15 08:26 | 51.91143 | 22.12857 | 37228 ft | 448 kts | 8° |
| 2026-04-15 08:26 | 51.97281 | 22.14678 | 37224 ft | 448 kts | 8° |
| 2026-04-15 08:27 | 52.03422 | 22.16498 | 37224 ft | 448 kts | 8° |
| 2026-04-15 08:27 | 52.09564 | 22.18303 | 37226 ft | 449 kts | 8° |
| 2026-04-15 08:28 | 52.15668 | 22.20109 | 37243 ft | 449 kts | 8° |
| 2026-04-15 08:28 | 52.21796 | 22.22142 | 37237 ft | 450 kts | 10° |
| 2026-04-15 08:29 | 52.27900 | 22.24359 | 37241 ft | 450 kts | 10° |
| 2026-04-15 08:29 | 52.34020 | 22.26581 | 37243 ft | 450 kts | 10° |
| 2026-04-15 08:30 | 52.40092 | 22.28730 | 37253 ft | 450 kts | 9° |
| 2026-04-15 08:30 | 52.46215 | 22.30871 | 37263 ft | 450 kts | 9° |
| 2026-04-15 08:31 | 52.52337 | 22.33027 | 37260 ft | 450 kts | 10° |
| 2026-04-15 08:31 | 52.58457 | 22.35206 | 37261 ft | 450 kts | 10° |
| 2026-04-15 08:32 | 52.64529 | 22.37382 | 37269 ft | 450 kts | 10° |
| 2026-04-15 08:32 | 52.70651 | 22.39575 | 37250 ft | 450 kts | 10° |
| 2026-04-15 08:33 | 52.76771 | 22.41774 | 37250 ft | 450 kts | 10° |
| 2026-04-15 08:33 | 52.82901 | 22.43974 | 37255 ft | 450 kts | 10° |
| 2026-04-15 08:34 | 52.88979 | 22.46167 | 37269 ft | 450 kts | 10° |
| 2026-04-15 08:34 | 52.95106 | 22.48370 | 37259 ft | 450 kts | 10° |
| 2026-04-15 08:35 | 53.01223 | 22.50590 | 37265 ft | 450 kts | 10° |
| 2026-04-15 08:35 | 53.07346 | 22.52823 | 37255 ft | 450 kts | 10° |
| 2026-04-15 08:36 | 53.13430 | 22.55045 | 37262 ft | 451 kts | 10° |
| 2026-04-15 08:36 | 53.19557 | 22.57286 | 37259 ft | 451 kts | 10° |
| 2026-04-15 08:37 | 53.25687 | 22.59545 | 37258 ft | 451 kts | 11° |
| 2026-04-15 08:37 | 53.31818 | 22.61806 | 37263 ft | 451 kts | 10° |
| 2026-04-15 08:38 | 53.37907 | 22.64048 | 37261 ft | 452 kts | 11° |
| 2026-04-15 08:38 | 53.44049 | 22.66327 | 37256 ft | 452 kts | 11° |
| 2026-04-15 08:38 | 53.47118 | 22.67470 | 37038 ft | 451 kts | 11° |
| 2026-04-15 08:39 | 53.50182 | 22.68612 | 36444 ft | 451 kts | 11° |
| 2026-04-15 08:39 | 53.53247 | 22.69751 | 35855 ft | 451 kts | 10° |
| 2026-04-15 08:39 | 53.56311 | 22.70893 | 35272 ft | 451 kts | 10° |
| 2026-04-15 08:39 | 53.59375 | 22.72035 | 34703 ft | 451 kts | 10° |
| 2026-04-15 08:40 | 53.62438 | 22.73176 | 34101 ft | 451 kts | 10° |
| 2026-04-15 08:40 | 53.65462 | 22.74303 | 33380 ft | 451 kts | 10° |
| 2026-04-15 08:40 | 53.68532 | 22.75451 | 32626 ft | 453 kts | 11° |
| 2026-04-15 08:40 | 53.71605 | 22.76606 | 31864 ft | 454 kts | 11° |
| 2026-04-15 08:41 | 53.74694 | 22.77774 | 31080 ft | 456 kts | 11° |
| 2026-04-15 08:41 | 53.77793 | 22.78947 | 30281 ft | 457 kts | 11° |
| 2026-04-15 08:41 | 53.80912 | 22.80125 | 29326 ft | 459 kts | 11° |
| 2026-04-15 08:41 | 53.84029 | 22.81300 | 28366 ft | 461 kts | 11° |
| 2026-04-15 08:42 | 53.87145 | 22.82479 | 27686 ft | 456 kts | 11° |
| 2026-04-15 08:42 | 53.90226 | 22.83649 | 27024 ft | 451 kts | 11° |
| 2026-04-15 08:42 | 53.93234 | 22.84793 | 26387 ft | 447 kts | 11° |
| 2026-04-15 08:42 | 53.96253 | 22.85942 | 25737 ft | 442 kts | 11° |
| 2026-04-15 08:43 | 53.99243 | 22.87078 | 25123 ft | 438 kts | 10° |
| 2026-04-15 08:43 | 54.02205 | 22.88207 | 24529 ft | 434 kts | 10° |
| 2026-04-15 08:43 | 54.05140 | 22.89331 | 23948 ft | 430 kts | 10° |
| 2026-04-15 08:43 | 54.08012 | 22.90718 | 23289 ft | 428 kts | 18° |
| 2026-04-15 08:44 | 54.10781 | 22.92544 | 22629 ft | 425 kts | 19° |
| 2026-04-15 08:44 | 54.13516 | 22.94368 | 21972 ft | 421 kts | 19° |
| 2026-04-15 08:44 | 54.16230 | 22.96184 | 21349 ft | 417 kts | 19° |
| 2026-04-15 08:44 | 54.18918 | 22.97989 | 20747 ft | 413 kts | 19° |
| 2026-04-15 08:45 | 54.21546 | 22.99753 | 20167 ft | 409 kts | 19° |
| 2026-04-15 08:45 | 54.24187 | 23.01523 | 19605 ft | 406 kts | 19° |
| 2026-04-15 08:45 | 54.26801 | 23.03302 | 19064 ft | 403 kts | 22° |
| 2026-04-15 08:45 | 54.29249 | 23.05622 | 18539 ft | 402 kts | 32° |
| 2026-04-15 08:46 | 54.31408 | 23.08647 | 17930 ft | 401 kts | 43° |
| 2026-04-15 08:46 | 54.33216 | 23.12262 | 17335 ft | 399 kts | 53° |
| 2026-04-15 08:46 | 54.34758 | 23.16197 | 16738 ft | 396 kts | 55° |
| 2026-04-15 08:46 | 54.36284 | 23.20111 | 16163 ft | 393 kts | 55° |
| 2026-04-15 08:47 | 54.37776 | 23.23930 | 15613 ft | 390 kts | 55° |
| 2026-04-15 08:47 | 54.39279 | 23.27776 | 15051 ft | 386 kts | 55° |
| 2026-04-15 08:47 | 54.40767 | 23.31593 | 14474 ft | 383 kts | 56° |
| 2026-04-15 08:47 | 54.42239 | 23.35386 | 13904 ft | 380 kts | 56° |
| 2026-04-15 08:48 | 54.43697 | 23.39155 | 13286 ft | 377 kts | 56° |
| 2026-04-15 08:48 | 54.45138 | 23.42891 | 12705 ft | 373 kts | 56° |
| 2026-04-15 08:48 | 54.46555 | 23.46567 | 12420 ft | 362 kts | 56° |
| 2026-04-15 08:48 | 54.47917 | 23.50098 | 12278 ft | 347 kts | 56° |
| 2026-04-15 08:49 | 54.49210 | 23.53451 | 12156 ft | 335 kts | 56° |
| 2026-04-15 08:49 | 54.50468 | 23.56731 | 12016 ft | 324 kts | 56° |
| 2026-04-15 08:49 | 54.51801 | 23.59784 | 11901 ft | 314 kts | 47° |
| 2026-04-15 08:49 | 54.53390 | 23.62258 | 11745 ft | 305 kts | 36° |
| 2026-04-15 08:50 | 54.55195 | 23.64144 | 11452 ft | 302 kts | 25° |
| 2026-04-15 08:50 | 54.57152 | 23.65406 | 11150 ft | 299 kts | 14° |
| 2026-04-15 08:50 | 54.59155 | 23.66346 | 10819 ft | 298 kts | 15° |
| 2026-04-15 08:50 | 54.61155 | 23.67293 | 10475 ft | 298 kts | 15° |
| 2026-04-15 08:51 | 54.63124 | 23.68234 | 10182 ft | 297 kts | 15° |
| 2026-04-15 08:51 | 54.65107 | 23.69187 | 9866 ft | 295 kts | 15° |
| 2026-04-15 08:51 | 54.67078 | 23.70138 | 9527 ft | 293 kts | 16° |
| 2026-04-15 08:51 | 54.69038 | 23.71087 | 9173 ft | 293 kts | 16° |
| 2026-04-15 08:52 | 54.70994 | 23.72031 | 8870 ft | 291 kts | 16° |
| 2026-04-15 08:52 | 54.72957 | 23.72771 | 8570 ft | 288 kts | 5° |
| 2026-04-15 08:52 | 54.74954 | 23.72702 | 8234 ft | 287 kts | 351° |
| 2026-04-15 08:52 | 54.76899 | 23.71971 | 7879 ft | 285 kts | 346° |
| 2026-04-15 08:53 | 54.78809 | 23.71201 | 7424 ft | 284 kts | 347° |
| 2026-04-15 08:53 | 54.80751 | 23.70417 | 6976 ft | 282 kts | 346° |
| 2026-04-15 08:53 | 54.82555 | 23.69269 | 6550 ft | 277 kts | 332° |
| 2026-04-15 08:53 | 54.84259 | 23.67727 | 5931 ft | 276 kts | 332° |
| 2026-04-15 08:54 | 54.85971 | 23.66175 | 5511 ft | 276 kts | 332° |
| 2026-04-15 08:54 | 54.87645 | 23.64753 | 5335 ft | 261 kts | 342° |
| 2026-04-15 08:54 | 54.89399 | 23.64473 | 4919 ft | 252 kts | 13° |
| 2026-04-15 08:54 | 54.90962 | 23.65677 | 4457 ft | 246 kts | 43° |
| 2026-04-15 08:55 | 54.91963 | 23.67903 | 4269 ft | 228 kts | 65° |
| 2026-04-15 08:55 | 54.92691 | 23.70291 | 4103 ft | 220 kts | 66° |
| 2026-04-15 08:55 | 54.93395 | 23.72592 | 3980 ft | 211 kts | 65° |
| 2026-04-15 08:55 | 54.94073 | 23.74811 | 3848 ft | 204 kts | 65° |
| 2026-04-15 08:56 | 54.94710 | 23.76980 | 3651 ft | 202 kts | 73° |
| 2026-04-15 08:56 | 54.94915 | 23.79366 | 3372 ft | 200 kts | 89° |
| 2026-04-15 08:56 | 54.95031 | 23.81783 | 3101 ft | 199 kts | 88° |
| 2026-04-15 08:56 | 54.95153 | 23.84139 | 2842 ft | 189 kts | 88° |
| 2026-04-15 08:57 | 54.95269 | 23.86373 | 2579 ft | 183 kts | 88° |
| 2026-04-15 08:57 | 54.95382 | 23.88565 | 2327 ft | 181 kts | 88° |
| 2026-04-15 08:57 | 54.95491 | 23.90681 | 2091 ft | 173 kts | 89° |
| 2026-04-15 08:57 | 54.95595 | 23.92692 | 1870 ft | 161 kts | 88° |
| 2026-04-15 08:58 | 54.95693 | 23.94622 | 1654 ft | 159 kts | 88° |
| 2026-04-15 08:58 | 54.95878 | 23.98232 | 1207 ft | 139 kts | 90° |
| 2026-04-15 08:58 | 54.95969 | 23.99885 | 1056 ft | 134 kts | 89° |
| 2026-04-15 08:59 | 54.96020 | 24.01496 | 796 ft | 134 kts | 90° |
| 2026-04-15 08:59 | 54.96116 | 24.03106 | 668 ft | 135 kts | 87° |
| 2026-04-15 08:59 | 54.96199 | 24.04730 | 487 ft | 136 kts | 89° |
| 2026-04-15 08:59 | 54.96284 | 24.06356 | 316 ft | 134 kts | 89° |
| 2026-04-15 09:00 | 54.96353 | 24.07857 | 268 ft | 109 kts | 85° |
| 2026-04-15 09:00 | 54.96404 | 24.08867 | 269 ft | 59 kts | 85° |
| 2026-04-15 09:00 | 54.96432 | 24.09418 | 266 ft | 34 kts | 85° |
| 2026-04-15 09:00 | 54.96443 | 24.09638 | 267 ft | 13 kts | 76° |
| 2026-04-15 09:01 | 54.96505 | 24.09663 | 268 ft | 10 kts | 360° |
| 2026-04-15 09:01 | 54.96579 | 24.09653 | 268 ft | 12 kts | 350° |
| 2026-04-15 09:01 | 54.96628 | 24.09549 | 268 ft | 13 kts | 267° |
| 2026-04-15 09:01 | 54.96618 | 24.09378 | 268 ft | 15 kts | 266° |
| 2026-04-15 09:02 | 54.96609 | 24.09180 | 268 ft | 18 kts | 265° |
| 2026-04-15 09:02 | 54.96598 | 24.08950 | 268 ft | 20 kts | 265° |
| 2026-04-15 09:02 | 54.96586 | 24.08689 | 268 ft | 23 kts | 265° |
| 2026-04-15 09:02 | 54.96573 | 24.08410 | 268 ft | 16 kts | 265° |
| 2026-04-15 09:03 | 54.96560 | 24.08197 | 268 ft | 19 kts | 257° |
| 2026-04-15 09:03 | 54.96524 | 24.07961 | 268 ft | 22 kts | 264° |
| 2026-04-15 09:03 | 54.96511 | 24.07707 | 268 ft | 16 kts | 265° |
| 2026-04-15 09:03 | 54.96502 | 24.07513 | 268 ft | 17 kts | 265° |
| 2026-04-15 09:04 | 54.96498 | 24.07357 | 268 ft | 10 kts | 285° |
| 2026-04-15 09:04 | 54.96560 | 24.07318 | 268 ft | 8 kts | 356° |
| 2026-04-15 09:04 | 54.96594 | 24.07324 | 268 ft | 2 kts | 44° |
| 2026-04-15 09:04 | 54.96593 | 24.07349 | 268 ft | 3 kts | 105° |
| 2026-04-15 09:05 | 54.96587 | 24.07389 | 268 ft | 3 kts | 103° |
| 2026-04-15 09:05 | 54.96584 | 24.07411 | 268 ft | 0 kts | 104° |